Station info - map view · info · telemetry · weather · raw · status · beacons · messages · bulletins · browse · moving · my account
Callsign, ship name or locator: Clear       
It is possible to search using wildcards (*?) after a prefix. Example: OH*
APRS station IK2PYX-9 - show graphs
Map loading...
Comment: QRV 435.250 pierluigi@ik2pyx.it
Mic-E message: In service
Location: 45°18.65' N 9°30.35' E - locator JN45SH04QO - show map - static map
418.7 yards Southeast bearing 143° from Lodi, Provincia di Lodi, Lombardy, Italy [?]
1.9 miles Northeast bearing 27° from Cornegliano Laudense, Provincia di Lodi, Lombardy, Italy
18.6 miles Southeast bearing 125° from Milan, Province of Milan, Lombardy, Italy
68.4 miles Northeast bearing 24° from Genova, Province of Genoa, Liguria, Italy
Last position: 2018-09-16 14:05:36 EDT (3d 6h37m ago)
2018-09-16 20:05:36 CEST local time at Lodi, Italy [?]
Altitude: 272 ft
Position ambiguous: Precision reduced at transmitter by 1 digits, position resolution approximately 202.3 yards.
Course: 145°
Speed: 2 MPH
Device: Kenwood: TM-D710 (rig)
Last path: IK2PYX-9>T5QXVL via WIDE1-1,WIDE2-2,qAR,IW2GOB-2 (good)
Positions stored: 59845
Packet rate: 149 seconds between packets on average during 7310 seconds.
Other SSIDs: IK2PYX IK2PYX-11 IK2PYX-12 IK2PYX-6 IK2PYX-7 IK2PYX-8 IK2PYX-A IK2PYX-B IK2PYX-C IK2PYX-N IK2PYX-R IK2PYX-Y
Stations near current position of IK2PYX-9 - show more
callsign distance last heard - EDT      callsign distance last heard - EDT
IK2PYX-A73.6 yards 255°2018-09-18 13:04:06 IK2PYX-681.5 yards 241°2018-09-15 06:41:00
IZ2DDY101.9 yards 172°2018-09-19 06:21:59 IK2PYX B109.5 yards 203°2018-09-19 20:36:39
IK2PYX-B109.5 yards 203°2018-09-19 20:36:49 IK2PYX-R109.5 yards 203°2018-09-19 20:33:16
IZ2DDY B122.3 yards 186°2018-09-19 20:39:08 IZ2DDY-B122.3 yards 186°2018-09-19 20:39:18
IZ2DDY-H0122.3 yards 186°2018-09-19 20:33:57 IZ2DDY-D122.3 yards 186°2018-09-14 16:22:40
PS-IK2PYX147.3 yards 197°2018-09-19 20:05:05 IK2PYX157.8 yards 278°2018-09-16 14:02:55
IZ2DDY-8215.1 yards 292°2018-09-18 07:27:42 IW2GOB-7507.7 yards 29°2018-09-12 06:16:42
IW2GOB507.7 yards 29°2018-09-19 16:28:01 IK2CHZ-100.4 miles 36°2018-09-15 05:21:03
IK2CHZ-20.4 miles 39°2018-09-15 06:17:45 IU2IOL-H00.5 miles 185°2018-09-19 20:02:01
IW2GOB-90.5 miles 63°2018-09-19 02:06:04 IR2AY C0.9 miles 254°2018-09-19 20:27:15
Stations which heard IK2PYX-9 directly on radio –
callsign pkts first heard - EDT last heard longest (tx => rx) longest at - EDT
IR3BT 28 2018-09-04 02:19:42 2018-09-04 08:45:02 JN55XJ > JN56MD 66.1 miles 320° 2018-09-04 03:27:24
IK2XDE-6 66 2018-09-04 01:09:58 2018-09-15 04:29:40 JN45SH > JN45MQ 34.7 miles 324° 2018-09-15 02:27:22
IR2AO 127 2018-09-04 01:07:58 2018-09-16 14:03:35 JN44UV > JN45PM 48.3 miles 336° 2018-09-16 11:50:41
IR2UBX-11 75 2018-09-04 01:07:59 2018-09-15 04:12:26 JN45SH > JN45MQ 34.9 miles 320° 2018-09-13 09:22:29
IR4AN 4 2018-09-16 08:56:55 2018-09-16 12:36:12 JN45UC > JN54FK 60.8 miles 140° 2018-09-16 12:36:12
IK3XTM 13 2018-09-04 02:36:52 2018-09-16 12:26:09 JN44UV > JN55LP 78.1 miles 49° 2018-09-16 11:52:43
IK2CHZ-11 1 2018-09-04 10:57:46 2018-09-04 10:57:46 JN45SH > JN45UI 9.5 miles 66° 2018-09-04 10:57:46
IR2BZ 164 2018-09-04 01:05:57 2018-09-16 13:41:22 JN44UV > JN45XO 49.6 miles 13° 2018-09-16 11:38:39
IR2BT 3 2018-09-04 02:15:43 2018-09-04 08:51:05 JN55FL > JN55FO 11.0 miles 3° 2018-09-04 08:50:06
IZ3GME-1 35 2018-09-04 03:17:16 2018-09-04 07:34:08 JN55VL > JN55WJ 6.8 miles 121° 2018-09-04 03:17:16
IR2Y 16 2018-09-04 02:10:39 2018-09-04 08:56:06 JN55GK > JN55EK 9.0 miles 261° 2018-09-04 02:20:43
IW2GOB-2 64 2018-09-04 01:14:01 2018-09-16 14:05:36 JN44UV > JN45SH 30.1 miles 340° 2018-09-16 11:41:40
IQ2ER 3 2018-09-04 01:46:27 2018-09-04 10:51:43 JN45RG > JN45OT 37.3 miles 343° 2018-09-04 10:51:43
IR1UFB 7 2018-09-15 03:23:23 2018-09-15 03:45:01 JN45IP > JN35WD 53.6 miles 232° 2018-09-15 03:45:01
IR1DM 2 2018-09-15 04:09:26 2018-09-15 04:12:25 JN45ML > JN44JS 52.3 miles 195° 2018-09-15 04:09:26
IR2S 115 2018-09-04 01:06:57 2018-09-04 10:42:39 JN45OK > JN55DQ 52.3 miles 72° 2018-09-04 10:29:34
IR2CW 3 2018-09-04 01:25:20 2018-09-15 04:34:43 JN45QH > JN45NE 14.9 miles 227° 2018-09-15 04:34:43
IR2CV 3 2018-09-04 08:31:56 2018-09-04 08:39:00 JN55GK > JN55JC 27.6 miles 155° 2018-09-04 08:39:00
IR2BW 29 2018-09-04 02:01:38 2018-09-16 11:39:40 JN44UV > JN55DN 54.3 miles 29° 2018-09-16 11:39:40
IZ2EVE 1 2018-09-15 02:48:55 2018-09-15 02:48:55 JN45NJ > JN45JI 15.5 miles 260° 2018-09-15 02:48:55
IR2DF 13 2018-09-04 01:49:29 2018-09-13 09:13:26 JN45RG > JN55AS 43.2 miles 40° 2018-09-13 09:13:26
IQ2LB-7 1 2018-09-15 04:04:17 2018-09-15 04:04:17 JN45MM > JN45NO 4.3 miles 42° 2018-09-15 04:04:17
IK2ILW 7 2018-09-04 01:54:34 2018-09-16 13:50:24 JN44VV > JN45VV 67.8 miles 1° 2018-09-16 11:30:36
IR3CA-2 12 2018-09-04 02:56:06 2018-09-04 07:48:32 JN55PK > JN66EA 64.3 miles 51° 2018-09-04 02:56:06
IK2CHZ-12 41 2018-09-15 02:16:23 2018-09-15 06:34:44 JN45MN > JN45UI 32.7 miles 113° 2018-09-15 03:00:13
IR2UFW 39 2018-09-04 10:08:27 2018-09-15 04:17:29 JN45IP > JN45LI 22.4 miles 147° 2018-09-15 03:38:59
IZ3VIV-15 24 2018-09-04 02:39:55 2018-09-04 08:09:51 JN55TM > JN55PJ 17.0 miles 241° 2018-09-04 03:09:13
IW3FVZ-11 3 2018-09-04 07:37:13 2018-09-04 07:39:14 JN55UL > JN55WH 16.3 miles 144° 2018-09-04 07:39:14
IR2UGL-11 3 2018-09-04 01:37:34 2018-09-15 02:58:13 JN45SM > JN46OA 38.9 miles 337° 2018-09-04 01:40:26
IW2NSB 2 2018-09-04 09:19:12 2018-09-04 09:29:16 JN45TM > JN45XV 29.3 miles 28° 2018-09-04 09:29:16
IQ4SC 1 2018-09-04 02:43:54 2018-09-04 02:43:54 JN55OK > JN54IO 61.3 miles 203° 2018-09-04 02:43:54
IR2BY 61 2018-09-04 01:08:58 2018-09-16 13:48:23 JN45RG > JN55BQ 42.8 miles 47° 2018-09-13 09:13:26
IR2UCL 7 2018-09-04 01:44:28 2018-09-15 02:22:20 JN45RG > JN45UP 27.8 miles 23° 2018-09-13 05:54:04
IU2GOH 3 2018-09-04 01:54:34 2018-09-04 02:09:38 JN45XM > JN55BL 9.8 miles 109° 2018-09-04 01:54:34
IR2UEZ 46 2018-09-13 06:31:28 2018-09-15 03:57:09 JN45OJ > JN45JP 26.5 miles 311° 2018-09-15 02:45:53
IQ3VO 103 2018-09-04 01:12:00 2018-09-16 13:58:34 JN44UV > JN55MQ 85.0 miles 49° 2018-09-16 11:54:42
IU2GED 1 2018-09-04 09:20:14 2018-09-04 09:20:14 JN45WL > JN45XV 28.7 miles 8° 2018-09-04 09:20:14
IR2UGD 49 2018-09-04 01:08:58 2018-09-15 04:37:45 JN45RG > JN45PJ 11.7 miles 308° 2018-09-04 01:08:58
IU2ITE 5 2018-09-04 10:14:29 2018-09-13 08:53:19 JN45OK > JN45MK 9.2 miles 273° 2018-09-04 10:33:35
IR3EP-11 22 2018-09-04 02:52:05 2018-09-04 07:59:42 JN55WJ > JN55SK 18.4 miles 276° 2018-09-04 07:11:00
IR2DQ 33 2018-09-16 08:52:54 2018-09-16 12:36:13 JN44UV > JN55AD 23.6 miles 34° 2018-09-16 11:57:43
IK3OCD-10 1 2018-09-04 03:07:08 2018-09-04 03:07:08 JN55SM > JN65AL 26.3 miles 96° 2018-09-04 03:07:08
HB3YVK-1 1 2018-09-15 03:31:56 2018-09-15 03:31:56 JN45IP > JN46LA 28.7 miles 22° 2018-09-15 03:31:56
IR2AL 76 2018-09-04 01:25:20 2018-09-15 04:38:45 JN45RG > JN45OL 18.4 miles 321° 2018-09-15 02:33:27
IW2GOB-12 219 2018-09-04 01:05:58 2018-09-16 14:05:37 JN44UV > JN45SH 30.1 miles 340° 2018-09-16 11:52:44
IZ2DDY 157 2018-09-04 01:06:02 2018-09-16 14:05:42 JN44UV > JN45SH 31.4 miles 339° 2018-09-16 11:56:48
IZ3NWP-2 11 2018-09-04 02:57:04 2018-09-04 08:02:42 JN55NK > JN55RL 16.2 miles 76° 2018-09-04 08:02:42

Only position packets which were originated by the station are shown here. The range statistics show some extra long hops, because some digipeaters do not correctly add themselves to the digipeater path. Please check the raw packets.
About this site
This page shows real-time information collected from the Automatic Position Reporting System Internet network (APRS-IS). APRS is used by amateur (ham) radio operators to transmit real-time position information, weather data, telemetry and messages over the radio. A vehicle equipped with a GPS receiver, a VHF transmitter or HF transceiver and a small computer device called a tracker transmits it's location, speed and course in a small data packet, which is then received by a nearby iGate receiving site which forwards the packet on the Internet. Systems connected to the Internet can send information on the APRS-IS without a radio transmitter, or collect and display information transmitted anywhere in the world.
FAQ · Blog · Discussion group · Linking to aprs.fi · AIS sites · Service status · Database statistics · Advertising on aprs.fi · Technical details · API · Change log · Planned changes · Credits and thanks · Terms Of Service · iPhone/iPad APRS